sensor_id;sensor_type;location;lat;lon;timestamp;pressure;altitude;pressure_sealevel;temperature;humidity
6090;BME280;3073;42.660;23.316;2023-05-07T00:01:01;94729.44;;;22.25;47.67
6090;BME280;3073;42.660;23.316;2023-05-07T00:03:28;94732.66;;;21.29;49.43
6090;BME280;3073;42.660;23.316;2023-05-07T00:05:55;94735.47;;;21.72;49.11
6090;BME280;3073;42.660;23.316;2023-05-07T00:08:22;94733.72;;;22.55;47.07
6090;BME280;3073;42.660;23.316;2023-05-07T00:10:48;94727.34;;;22.95;46.20
6090;BME280;3073;42.660;23.316;2023-05-07T00:13:17;94736.34;;;23.24;45.93
6090;BME280;3073;42.660;23.316;2023-05-07T00:15:44;94743.84;;;23.25;45.40
6090;BME280;3073;42.660;23.316;2023-05-07T00:18:12;94733.31;;;23.22;45.79
6090;BME280;3073;42.660;23.316;2023-05-07T00:20:39;94725.44;;;23.39;45.38
6090;BME280;3073;42.660;23.316;2023-05-07T00:23:06;94718.22;;;23.62;44.88
6090;BME280;3073;42.660;23.316;2023-05-07T00:25:33;94717.22;;;23.28;45.51
6090;BME280;3073;42.660;23.316;2023-05-07T00:28:00;94724.34;;;23.57;45.09
6090;BME280;3073;42.660;23.316;2023-05-07T00:30:29;94720.22;;;23.39;44.92
6090;BME280;3073;42.660;23.316;2023-05-07T00:32:56;94716.44;;;23.45;45.10
6090;BME280;3073;42.660;23.316;2023-05-07T00:35:24;94709.97;;;23.51;44.82
6090;BME280;3073;42.660;23.316;2023-05-07T00:37:51;94721.63;;;23.36;45.24
6090;BME280;3073;42.660;23.316;2023-05-07T00:40:18;94723.00;;;23.42;45.17
6090;BME280;3073;42.660;23.316;2023-05-07T00:42:44;94722.72;;;23.44;45.22
6090;BME280;3073;42.660;23.316;2023-05-07T00:45:12;94724.22;;;23.36;45.37
6090;BME280;3073;42.660;23.316;2023-05-07T00:47:39;94730.69;;;23.22;45.77
6090;BME280;3073;42.660;23.316;2023-05-07T00:50:08;94730.66;;;23.39;45.48
6090;BME280;3073;42.660;23.316;2023-05-07T00:52:39;94741.69;;;23.53;44.89
6090;BME280;3073;42.660;23.316;2023-05-07T00:55:07;94735.59;;;23.23;45.59
6090;BME280;3073;42.660;23.316;2023-05-07T00:57:36;94737.72;;;23.47;45.07
6090;BME280;3073;42.660;23.316;2023-05-07T01:00:04;94732.50;;;23.30;45.67
6090;BME280;3073;42.660;23.316;2023-05-07T01:02:33;94736.84;;;23.00;45.94
6090;BME280;3073;42.660;23.316;2023-05-07T01:05:00;94738.06;;;22.77;46.57
6090;BME280;3073;42.660;23.316;2023-05-07T01:07:27;94732.72;;;22.73;46.50
6090;BME280;3073;42.660;23.316;2023-05-07T01:09:56;94731.19;;;22.89;46.16
6090;BME280;3073;42.660;23.316;2023-05-07T01:12:24;94725.97;;;22.89;46.11
6090;BME280;3073;42.660;23.316;2023-05-07T01:14:51;94728.75;;;23.01;46.15
6090;BME280;3073;42.660;23.316;2023-05-07T01:17:18;94727.19;;;23.00;46.06
6090;BME280;3073;42.660;23.316;2023-05-07T01:19:45;94732.25;;;22.71;46.49
6090;BME280;3073;42.660;23.316;2023-05-07T01:22:14;94733.03;;;22.97;46.29
6090;BME280;3073;42.660;23.316;2023-05-07T01:24:44;94732.88;;;22.94;45.97
6090;BME280;3073;42.660;23.316;2023-05-07T01:27:11;94732.84;;;23.02;45.88
6090;BME280;3073;42.660;23.316;2023-05-07T01:29:38;94729.94;;;22.95;45.96
6090;BME280;3073;42.660;23.316;2023-05-07T01:32:05;94724.25;;;22.50;46.67
6090;BME280;3073;42.660;23.316;2023-05-07T01:34:33;94722.91;;;22.70;46.33
6090;BME280;3073;42.660;23.316;2023-05-07T01:37:02;94723.19;;;22.51;46.77
6090;BME280;3073;42.660;23.316;2023-05-07T01:39:30;94727.34;;;22.70;46.21
6090;BME280;3073;42.660;23.316;2023-05-07T01:41:59;94712.50;;;22.79;45.78
6090;BME280;3073;42.660;23.316;2023-05-07T01:44:26;94709.94;;;21.96;46.89
6090;BME280;3073;42.660;23.316;2023-05-07T01:46:53;94718.91;;;22.64;45.70
6090;BME280;3073;42.660;23.316;2023-05-07T01:49:20;94710.00;;;22.39;46.33
6090;BME280;3073;42.660;23.316;2023-05-07T01:51:48;94699.34;;;22.58;45.53
6090;BME280;3073;42.660;23.316;2023-05-07T01:54:14;94698.84;;;22.39;45.76
6090;BME280;3073;42.660;23.316;2023-05-07T01:56:41;94691.13;;;21.99;46.23
6090;BME280;3073;42.660;23.316;2023-05-07T01:59:10;94693.28;;;21.97;46.33
6090;BME280;3073;42.660;23.316;2023-05-07T02:01:38;94689.75;;;21.93;46.41
6090;BME280;3073;42.660;23.316;2023-05-07T02:04:05;94682.13;;;21.66;46.91
6090;BME280;3073;42.660;23.316;2023-05-07T02:06:32;94678.53;;;21.45;47.63
6090;BME280;3073;42.660;23.316;2023-05-07T02:08:59;94674.22;;;21.80;47.29
6090;BME280;3073;42.660;23.316;2023-05-07T02:11:26;94673.09;;;20.80;49.40
6090;BME280;3073;42.660;23.316;2023-05-07T02:13:53;94671.91;;;20.86;49.34
6090;BME280;3073;42.660;23.316;2023-05-07T02:16:21;94677.22;;;20.09;50.09
6090;BME280;3073;42.660;23.316;2023-05-07T02:18:49;94675.31;;;17.65;55.30
6090;BME280;3073;42.660;23.316;2023-05-07T02:21:16;94685.59;;;19.92;50.85
6090;BME280;3073;42.660;23.316;2023-05-07T02:23:42;94678.78;;;18.40;54.71
6090;BME280;3073;42.660;23.316;2023-05-07T02:26:10;94682.66;;;19.26;53.35
6090;BME280;3073;42.660;23.316;2023-05-07T02:28:37;94679.06;;;19.40;52.73
6090;BME280;3073;42.660;23.316;2023-05-07T02:31:04;94679.22;;;20.62;49.63
6090;BME280;3073;42.660;23.316;2023-05-07T02:33:32;94675.00;;;20.88;49.36
6090;BME280;3073;42.660;23.316;2023-05-07T02:36:05;94679.41;;;19.34;52.22
6090;BME280;3073;42.660;23.316;2023-05-07T02:38:32;94681.19;;;19.20;53.76
6090;BME280;3073;42.660;23.316;2023-05-07T02:40:59;94674.44;;;20.05;52.10
6090;BME280;3073;42.660;23.316;2023-05-07T02:43:26;94677.69;;;20.61;50.60
6090;BME280;3073;42.660;23.316;2023-05-07T02:46:00;94670.00;;;20.33;51.13
6090;BME280;3073;42.660;23.316;2023-05-07T02:48:27;94684.97;;;18.95;54.48
6090;BME280;3073;42.660;23.316;2023-05-07T02:50:55;94687.13;;;19.52;53.12
6090;BME280;3073;42.660;23.316;2023-05-07T02:53:22;94685.63;;;20.42;51.02
6090;BME280;3073;42.660;23.316;2023-05-07T02:55:51;94680.84;;;20.71;50.37
6090;BME280;3073;42.660;23.316;2023-05-07T02:58:18;94687.91;;;20.79;49.90
6090;BME280;3073;42.660;23.316;2023-05-07T03:00:46;94697.22;;;19.81;52.82
6090;BME280;3073;42.660;23.316;2023-05-07T03:03:13;94692.38;;;20.65;50.51
6090;BME280;3073;42.660;23.316;2023-05-07T03:05:39;94697.47;;;20.34;51.62
6090;BME280;3073;42.660;23.316;2023-05-07T03:08:08;94705.44;;;20.38;51.15
6090;BME280;3073;42.660;23.316;2023-05-07T03:10:36;94694.63;;;20.80;50.20
6090;BME280;3073;42.660;23.316;2023-05-07T03:13:03;94705.22;;;20.92;49.66
6090;BME280;3073;42.660;23.316;2023-05-07T03:15:30;94699.72;;;20.49;50.27
6090;BME280;3073;42.660;23.316;2023-05-07T03:17:57;94710.34;;;19.58;52.85
6090;BME280;3073;42.660;23.316;2023-05-07T03:20:24;94716.00;;;19.73;53.13
6090;BME280;3073;42.660;23.316;2023-05-07T03:22:50;94711.75;;;20.18;52.33
6090;BME280;3073;42.660;23.316;2023-05-07T03:25:33;94710.25;;;20.89;49.95
6090;BME280;3073;42.660;23.316;2023-05-07T03:28:06;94711.28;;;19.75;52.53
6090;BME280;3073;42.660;23.316;2023-05-07T03:30:33;94720.22;;;20.37;51.64
6090;BME280;3073;42.660;23.316;2023-05-07T03:33:00;94718.47;;;19.78;52.14
6090;BME280;3073;42.660;23.316;2023-05-07T03:35:27;94720.31;;;19.78;52.01
6090;BME280;3073;42.660;23.316;2023-05-07T03:37:54;94715.66;;;19.15;54.29
6090;BME280;3073;42.660;23.316;2023-05-07T03:40:20;94722.34;;;19.81;52.61
6090;BME280;3073;42.660;23.316;2023-05-07T03:42:49;94724.31;;;20.38;50.83
6090;BME280;3073;42.660;23.316;2023-05-07T03:45:16;94727.78;;;20.34;51.00
6090;BME280;3073;42.660;23.316;2023-05-07T03:47:43;94726.44;;;20.23;51.15
6090;BME280;3073;42.660;23.316;2023-05-07T03:50:09;94732.31;;;20.01;51.70
6090;BME280;3073;42.660;23.316;2023-05-07T03:52:36;94728.63;;;20.79;50.26
6090;BME280;3073;42.660;23.316;2023-05-07T03:55:04;94724.56;;;20.86;49.62
6090;BME280;3073;42.660;23.316;2023-05-07T03:57:31;94733.16;;;20.73;49.78
6090;BME280;3073;42.660;23.316;2023-05-07T03:59:59;94736.78;;;20.50;49.95
6090;BME280;3073;42.660;23.316;2023-05-07T04:02:26;94742.44;;;20.52;50.35
6090;BME280;3073;42.660;23.316;2023-05-07T04:04:53;94738.41;;;20.82;49.82
6090;BME280;3073;42.660;23.316;2023-05-07T04:07:20;94746.19;;;21.18;49.00
6090;BME280;3073;42.660;23.316;2023-05-07T04:09:47;94746.66;;;21.20;49.26
6090;BME280;3073;42.660;23.316;2023-05-07T04:12:14;94754.41;;;21.64;48.28
6090;BME280;3073;42.660;23.316;2023-05-07T04:14:42;94759.06;;;21.84;48.12
6090;BME280;3073;42.660;23.316;2023-05-07T04:17:10;94764.72;;;20.53;49.94
6090;BME280;3073;42.660;23.316;2023-05-07T04:19:37;94771.84;;;20.07;51.83
6090;BME280;3073;42.660;23.316;2023-05-07T04:22:03;94775.38;;;21.23;49.24
6090;BME280;3073;42.660;23.316;2023-05-07T04:24:31;94766.47;;;21.16;49.21
6090;BME280;3073;42.660;23.316;2023-05-07T04:26:58;94773.06;;;20.64;50.76
6090;BME280;3073;42.660;23.316;2023-05-07T04:29:25;94774.47;;;21.50;49.32
6090;BME280;3073;42.660;23.316;2023-05-07T04:31:52;94780.31;;;21.86;48.24
6090;BME280;3073;42.660;23.316;2023-05-07T04:34:22;94780.41;;;21.20;49.44
6090;BME280;3073;42.660;23.316;2023-05-07T04:36:49;94788.72;;;20.45;51.35
6090;BME280;3073;42.660;23.316;2023-05-07T04:39:16;94786.03;;;20.64;51.19
6090;BME280;3073;42.660;23.316;2023-05-07T04:41:43;94793.97;;;20.81;51.45
6090;BME280;3073;42.660;23.316;2023-05-07T04:44:10;94796.91;;;21.24;49.90
6090;BME280;3073;42.660;23.316;2023-05-07T04:46:37;94793.59;;;21.32;50.02
6090;BME280;3073;42.660;23.316;2023-05-07T04:49:04;94794.63;;;20.73;51.38
6090;BME280;3073;42.660;23.316;2023-05-07T04:51:32;94795.00;;;20.30;52.28
6090;BME280;3073;42.660;23.316;2023-05-07T04:53:59;94786.16;;;21.39;50.21
6090;BME280;3073;42.660;23.316;2023-05-07T04:56:27;94783.31;;;21.04;50.91
6090;BME280;3073;42.660;23.316;2023-05-07T04:58:54;94785.00;;;22.54;48.22
6090;BME280;3073;42.660;23.316;2023-05-07T05:01:21;94794.19;;;22.61;47.89
6090;BME280;3073;42.660;23.316;2023-05-07T05:03:48;94786.69;;;22.59;47.85
6090;BME280;3073;42.660;23.316;2023-05-07T05:06:14;94788.13;;;22.99;47.24
6090;BME280;3073;42.660;23.316;2023-05-07T05:08:43;94789.97;;;23.16;46.79
6090;BME280;3073;42.660;23.316;2023-05-07T05:11:09;94780.75;;;23.36;46.27
6090;BME280;3073;42.660;23.316;2023-05-07T05:13:36;94790.13;;;23.20;46.42
6090;BME280;3073;42.660;23.316;2023-05-07T05:16:09;94779.97;;;23.61;45.63
6090;BME280;3073;42.660;23.316;2023-05-07T05:18:47;94784.25;;;23.74;45.69
6090;BME280;3073;42.660;23.316;2023-05-07T05:21:22;94781.53;;;23.53;45.84
6090;BME280;3073;42.660;23.316;2023-05-07T05:24:11;94787.56;;;24.30;44.94
6090;BME280;3073;42.660;23.316;2023-05-07T05:26:39;94783.81;;;24.48;44.51
6090;BME280;3073;42.660;23.316;2023-05-07T05:29:08;94792.88;;;24.71;44.25
6090;BME280;3073;42.660;23.316;2023-05-07T05:31:35;94784.41;;;24.16;44.01
6090;BME280;3073;42.660;23.316;2023-05-07T05:34:02;94789.84;;;22.39;47.14
6090;BME280;3073;42.660;23.316;2023-05-07T05:36:29;94789.28;;;22.59;47.43
6090;BME280;3073;42.660;23.316;2023-05-07T05:38:57;94803.16;;;23.28;45.70
6090;BME280;3073;42.660;23.316;2023-05-07T05:41:25;94792.22;;;24.24;44.92
6090;BME280;3073;42.660;23.316;2023-05-07T05:43:52;94792.31;;;25.28;42.54
6090;BME280;3073;42.660;23.316;2023-05-07T05:46:19;94790.38;;;26.39;40.80
6090;BME280;3073;42.660;23.316;2023-05-07T05:48:48;94789.69;;;26.78;39.98
6090;BME280;3073;42.660;23.316;2023-05-07T05:51:15;94801.06;;;27.50;38.92
6090;BME280;3073;42.660;23.316;2023-05-07T05:53:41;94793.69;;;28.46;37.63
6090;BME280;3073;42.660;23.316;2023-05-07T05:56:08;94794.50;;;28.15;37.41
6090;BME280;3073;42.660;23.316;2023-05-07T05:58:37;94793.00;;;29.19;36.36
6090;BME280;3073;42.660;23.316;2023-05-07T06:01:04;94791.13;;;29.80;36.05
6090;BME280;3073;42.660;23.316;2023-05-07T06:03:31;94797.78;;;30.65;34.68
6090;BME280;3073;42.660;23.316;2023-05-07T06:05:58;94801.63;;;30.45;34.41
6090;BME280;3073;42.660;23.316;2023-05-07T06:08:32;94808.34;;;31.21;33.22
6090;BME280;3073;42.660;23.316;2023-05-07T06:10:59;94804.63;;;31.29;33.20
6090;BME280;3073;42.660;23.316;2023-05-07T06:13:26;94797.31;;;31.82;32.84
6090;BME280;3073;42.660;23.316;2023-05-07T06:15:57;94799.31;;;31.92;32.89
6090;BME280;3073;42.660;23.316;2023-05-07T06:18:24;94795.47;;;31.86;32.39
6090;BME280;3073;42.660;23.316;2023-05-07T06:20:51;94793.03;;;32.07;31.90
6090;BME280;3073;42.660;23.316;2023-05-07T06:23:18;94798.06;;;32.74;31.52
6090;BME280;3073;42.660;23.316;2023-05-07T06:25:48;94791.69;;;32.28;31.07
6090;BME280;3073;42.660;23.316;2023-05-07T06:28:15;94797.38;;;31.86;31.40
6090;BME280;3073;42.660;23.316;2023-05-07T06:30:42;94785.03;;;32.00;31.79
6090;BME280;3073;42.660;23.316;2023-05-07T06:33:13;94787.66;;;32.44;31.55
6090;BME280;3073;42.660;23.316;2023-05-07T06:35:39;94779.03;;;31.30;32.12
6090;BME280;3073;42.660;23.316;2023-05-07T06:38:06;94783.72;;;32.75;30.71
6090;BME280;3073;42.660;23.316;2023-05-07T06:40:33;94780.13;;;30.95;31.98
6090;BME280;3073;42.660;23.316;2023-05-07T06:43:00;94781.97;;;33.07;30.81
6090;BME280;3073;42.660;23.316;2023-05-07T06:45:27;94774.03;;;32.39;31.05
6090;BME280;3073;42.660;23.316;2023-05-07T06:47:54;94774.50;;;33.24;30.91
6090;BME280;3073;42.660;23.316;2023-05-07T06:50:22;94768.66;;;34.15;29.69
6090;BME280;3073;42.660;23.316;2023-05-07T06:52:52;94765.59;;;34.38;29.29
6090;BME280;3073;42.660;23.316;2023-05-07T06:55:19;94764.06;;;34.40;28.76
6090;BME280;3073;42.660;23.316;2023-05-07T06:57:46;94768.03;;;33.10;29.72
6090;BME280;3073;42.660;23.316;2023-05-07T07:00:14;94764.84;;;32.80;30.51
6090;BME280;3073;42.660;23.316;2023-05-07T07:02:41;94766.50;;;32.44;30.68
6090;BME280;3073;42.660;23.316;2023-05-07T07:05:08;94766.22;;;33.29;29.93
6090;BME280;3073;42.660;23.316;2023-05-07T07:07:36;94764.81;;;32.15;31.00
6090;BME280;3073;42.660;23.316;2023-05-07T07:10:07;94766.03;;;32.90;30.35
6090;BME280;3073;42.660;23.316;2023-05-07T07:12:34;94768.81;;;32.46;30.77
6090;BME280;3073;42.660;23.316;2023-05-07T07:15:01;94762.09;;;33.42;29.85
6090;BME280;3073;42.660;23.316;2023-05-07T07:17:28;94758.63;;;32.48;30.63
6090;BME280;3073;42.660;23.316;2023-05-07T07:19:56;94756.09;;;33.70;30.04
6090;BME280;3073;42.660;23.316;2023-05-07T07:22:23;94759.50;;;33.56;29.96
6090;BME280;3073;42.660;23.316;2023-05-07T07:24:51;94757.56;;;33.46;30.07
6090;BME280;3073;42.660;23.316;2023-05-07T07:27:19;94754.00;;;31.90;31.57
6090;BME280;3073;42.660;23.316;2023-05-07T07:29:46;94756.72;;;32.45;31.08
6090;BME280;3073;42.660;23.316;2023-05-07T07:32:13;94746.66;;;33.69;30.10
6090;BME280;3073;42.660;23.316;2023-05-07T07:34:40;94754.03;;;33.10;30.86
6090;BME280;3073;42.660;23.316;2023-05-07T07:37:06;94748.16;;;34.44;29.78
6090;BME280;3073;42.660;23.316;2023-05-07T07:39:33;94760.22;;;33.53;29.96
6090;BME280;3073;42.660;23.316;2023-05-07T07:42:02;94765.66;;;31.45;32.14
6090;BME280;3073;42.660;23.316;2023-05-07T07:44:28;94753.72;;;31.55;32.55
6090;BME280;3073;42.660;23.316;2023-05-07T07:46:55;94756.81;;;33.42;31.00
6090;BME280;3073;42.660;23.316;2023-05-07T07:49:22;94758.06;;;34.19;29.69
6090;BME280;3073;42.660;23.316;2023-05-07T07:51:49;94770.16;;;35.56;28.79
6090;BME280;3073;42.660;23.316;2023-05-07T07:54:16;94769.34;;;34.79;29.33
6090;BME280;3073;42.660;23.316;2023-05-07T07:56:43;94773.13;;;34.78;28.71
6090;BME280;3073;42.660;23.316;2023-05-07T07:59:11;94772.81;;;36.62;27.39
6090;BME280;3073;42.660;23.316;2023-05-07T08:01:39;94760.56;;;36.69;26.87
6090;BME280;3073;42.660;23.316;2023-05-07T08:04:06;94764.59;;;35.98;28.09
6090;BME280;3073;42.660;23.316;2023-05-07T08:06:32;94758.50;;;36.46;26.66
6090;BME280;3073;42.660;23.316;2023-05-07T08:08:59;94761.22;;;36.39;26.93
6090;BME280;3073;42.660;23.316;2023-05-07T08:11:26;94762.91;;;35.63;27.04
6090;BME280;3073;42.660;23.316;2023-05-07T08:13:54;94766.19;;;37.42;26.15
6090;BME280;3073;42.660;23.316;2023-05-07T08:16:22;94765.66;;;36.56;26.42
6090;BME280;3073;42.660;23.316;2023-05-07T08:18:50;94759.44;;;37.64;25.28
6090;BME280;3073;42.660;23.316;2023-05-07T08:21:17;94756.94;;;36.89;25.44
6090;BME280;3073;42.660;23.316;2023-05-07T08:23:55;94752.63;;;37.63;25.72
6090;BME280;3073;42.660;23.316;2023-05-07T08:26:28;94757.97;;;38.99;24.93
6090;BME280;3073;42.660;23.316;2023-05-07T08:28:58;94756.25;;;39.08;23.94
6090;BME280;3073;42.660;23.316;2023-05-07T08:31:27;94756.94;;;38.27;23.96
6090;BME280;3073;42.660;23.316;2023-05-07T08:33:54;94756.34;;;37.08;25.24
6090;BME280;3073;42.660;23.316;2023-05-07T08:36:20;94747.56;;;36.37;26.01
6090;BME280;3073;42.660;23.316;2023-05-07T08:38:47;94753.31;;;37.06;25.36
6090;BME280;3073;42.660;23.316;2023-05-07T08:41:15;94747.78;;;36.56;25.79
6090;BME280;3073;42.660;23.316;2023-05-07T08:43:45;94748.44;;;35.75;25.91
6090;BME280;3073;42.660;23.316;2023-05-07T08:46:17;94736.41;;;36.56;25.71
6090;BME280;3073;42.660;23.316;2023-05-07T08:48:47;94742.75;;;36.25;25.23
6090;BME280;3073;42.660;23.316;2023-05-07T08:51:16;94747.16;;;36.42;25.08
6090;BME280;3073;42.660;23.316;2023-05-07T08:53:43;94739.00;;;34.84;25.75
6090;BME280;3073;42.660;23.316;2023-05-07T08:56:11;94731.88;;;36.08;25.16
6090;BME280;3073;42.660;23.316;2023-05-07T08:58:38;94735.78;;;37.12;24.47
6090;BME280;3073;42.660;23.316;2023-05-07T09:01:08;94725.34;;;34.89;26.74
6090;BME280;3073;42.660;23.316;2023-05-07T09:03:36;94729.91;;;33.33;28.14
6090;BME280;3073;42.660;23.316;2023-05-07T09:06:06;94725.13;;;32.08;29.72
6090;BME280;3073;42.660;23.316;2023-05-07T09:08:35;94723.00;;;30.47;31.25
6090;BME280;3073;42.660;23.316;2023-05-07T09:11:03;94722.09;;;32.64;29.08
6090;BME280;3073;42.660;23.316;2023-05-07T09:13:30;94717.38;;;33.08;28.35
6090;BME280;3073;42.660;23.316;2023-05-07T09:15:57;94718.66;;;33.64;27.60
6090;BME280;3073;42.660;23.316;2023-05-07T09:18:24;94711.88;;;34.05;27.87
6090;BME280;3073;42.660;23.316;2023-05-07T09:20:51;94713.25;;;34.77;26.96
6090;BME280;3073;42.660;23.316;2023-05-07T09:23:20;94712.34;;;35.23;26.51
6090;BME280;3073;42.660;23.316;2023-05-07T09:25:47;94712.19;;;31.92;29.22
6090;BME280;3073;42.660;23.316;2023-05-07T09:28:14;94699.38;;;35.32;26.84
6090;BME280;3073;42.660;23.316;2023-05-07T09:30:41;94700.91;;;36.32;26.04
6090;BME280;3073;42.660;23.316;2023-05-07T09:33:08;94695.13;;;34.51;27.01
6090;BME280;3073;42.660;23.316;2023-05-07T09:35:34;94698.72;;;36.20;24.99
6090;BME280;3073;42.660;23.316;2023-05-07T09:38:02;94699.09;;;37.24;23.22
6090;BME280;3073;42.660;23.316;2023-05-07T09:40:30;94699.09;;;39.58;22.80
6090;BME280;3073;42.660;23.316;2023-05-07T09:43:09;94705.22;;;39.75;22.28
6090;BME280;3073;42.660;23.316;2023-05-07T09:45:38;94701.31;;;39.79;22.01
6090;BME280;3073;42.660;23.316;2023-05-07T09:48:06;94700.50;;;40.85;21.38
6090;BME280;3073;42.660;23.316;2023-05-07T09:50:36;94693.63;;;40.42;21.35
6090;BME280;3073;42.660;23.316;2023-05-07T09:53:13;94701.88;;;40.48;21.30
6090;BME280;3073;42.660;23.316;2023-05-07T09:55:43;94699.00;;;39.61;21.89
6090;BME280;3073;42.660;23.316;2023-05-07T09:58:12;94699.97;;;39.71;21.53
6090;BME280;3073;42.660;23.316;2023-05-07T10:00:45;94693.81;;;39.38;21.24
6090;BME280;3073;42.660;23.316;2023-05-07T10:03:16;94688.25;;;37.38;21.84
6090;BME280;3073;42.660;23.316;2023-05-07T10:05:46;94691.50;;;37.52;21.91
6090;BME280;3073;42.660;23.316;2023-05-07T10:08:15;94680.66;;;36.42;22.54
6090;BME280;3073;42.660;23.316;2023-05-07T10:10:44;94682.03;;;36.53;22.53
6090;BME280;3073;42.660;23.316;2023-05-07T10:13:11;94671.31;;;36.27;23.16
6090;BME280;3073;42.660;23.316;2023-05-07T10:15:39;94674.81;;;37.72;21.82
6090;BME280;3073;42.660;23.316;2023-05-07T10:18:07;94668.78;;;38.96;21.68
6090;BME280;3073;42.660;23.316;2023-05-07T10:20:36;94675.66;;;35.66;23.33
6090;BME280;3073;42.660;23.316;2023-05-07T10:23:04;94670.59;;;34.33;24.99
6090;BME280;3073;42.660;23.316;2023-05-07T10:25:32;94669.06;;;33.19;25.83
6090;BME280;3073;42.660;23.316;2023-05-07T10:28:04;94659.59;;;34.31;24.91
6090;BME280;3073;42.660;23.316;2023-05-07T10:30:38;94664.56;;;32.40;26.75
6090;BME280;3073;42.660;23.316;2023-05-07T10:33:09;94651.69;;;34.17;25.00
6090;BME280;3073;42.660;23.316;2023-05-07T10:35:40;94650.78;;;36.95;23.19
6090;BME280;3073;42.660;23.316;2023-05-07T10:38:08;94643.25;;;35.85;23.73
6090;BME280;3073;42.660;23.316;2023-05-07T10:40:35;94640.56;;;34.64;24.81
6090;BME280;3073;42.660;23.316;2023-05-07T10:43:05;94651.81;;;37.58;23.16
6090;BME280;3073;42.660;23.316;2023-05-07T10:45:32;94645.28;;;39.24;21.93
6090;BME280;3073;42.660;23.316;2023-05-07T10:48:07;94651.28;;;41.07;20.38
6090;BME280;3073;42.660;23.316;2023-05-07T10:50:34;94655.84;;;40.82;20.67
6090;BME280;3073;42.660;23.316;2023-05-07T10:53:22;94645.63;;;40.64;20.66
6090;BME280;3073;42.660;23.316;2023-05-07T10:56:24;94636.72;;;38.77;21.70
6090;BME280;3073;42.660;23.316;2023-05-07T10:58:56;94641.00;;;40.23;20.93
6090;BME280;3073;42.660;23.316;2023-05-07T11:01:52;94638.22;;;37.76;21.83
6090;BME280;3073;42.660;23.316;2023-05-07T11:04:20;94639.56;;;38.89;20.93
6090;BME280;3073;42.660;23.316;2023-05-07T11:10:02;94643.84;;;37.58;21.82
6090;BME280;3073;42.660;23.316;2023-05-07T11:12:52;94640.81;;;39.37;21.15
6090;BME280;3073;42.660;23.316;2023-05-07T11:15:44;94636.72;;;39.48;21.46
6090;BME280;3073;42.660;23.316;2023-05-07T11:18:13;94636.66;;;37.78;22.00
6090;BME280;3073;42.660;23.316;2023-05-07T11:20:51;94626.16;;;38.53;21.86
6090;BME280;3073;42.660;23.316;2023-05-07T11:26:23;94627.41;;;39.04;21.24
6090;BME280;3073;42.660;23.316;2023-05-07T11:28:51;94621.03;;;40.40;20.65
6090;BME280;3073;42.660;23.316;2023-05-07T11:31:23;94633.91;;;41.25;20.12
6090;BME280;3073;42.660;23.316;2023-05-07T11:33:52;94624.53;;;40.25;20.60
6090;BME280;3073;42.660;23.316;2023-05-07T11:36:19;94614.50;;;39.19;20.64
6090;BME280;3073;42.660;23.316;2023-05-07T11:38:46;94618.84;;;39.45;20.49
6090;BME280;3073;42.660;23.316;2023-05-07T11:41:13;94613.78;;;38.43;21.32
6090;BME280;3073;42.660;23.316;2023-05-07T11:43:54;94611.09;;;37.57;22.41
6090;BME280;3073;42.660;23.316;2023-05-07T11:46:22;94612.25;;;36.46;22.81
6090;BME280;3073;42.660;23.316;2023-05-07T11:48:49;94614.13;;;37.59;22.37
6090;BME280;3073;42.660;23.316;2023-05-07T11:51:20;94607.81;;;37.96;21.80
6090;BME280;3073;42.660;23.316;2023-05-07T11:53:48;94609.88;;;38.08;21.75
6090;BME280;3073;42.660;23.316;2023-05-07T11:56:17;94610.28;;;38.86;21.09
6090;BME280;3073;42.660;23.316;2023-05-07T11:58:45;94615.56;;;40.60;20.61
6090;BME280;3073;42.660;23.316;2023-05-07T12:01:13;94607.84;;;40.04;20.54
6090;BME280;3073;42.660;23.316;2023-05-07T12:03:43;94606.72;;;39.57;20.39
6090;BME280;3073;42.660;23.316;2023-05-07T12:06:12;94609.06;;;37.88;21.44
6090;BME280;3073;42.660;23.316;2023-05-07T12:08:40;94596.56;;;39.20;20.72
6090;BME280;3073;42.660;23.316;2023-05-07T12:11:09;94590.25;;;39.30;21.16
6090;BME280;3073;42.660;23.316;2023-05-07T12:13:37;94588.66;;;38.01;21.34
6090;BME280;3073;42.660;23.316;2023-05-07T12:16:05;94584.88;;;37.56;21.09
6090;BME280;3073;42.660;23.316;2023-05-07T12:18:34;94584.22;;;35.15;22.77
6090;BME280;3073;42.660;23.316;2023-05-07T12:21:04;94583.97;;;36.62;22.34
6090;BME280;3073;42.660;23.316;2023-05-07T12:23:31;94583.19;;;32.81;25.27
6090;BME280;3073;42.660;23.316;2023-05-07T12:25:59;94579.00;;;32.62;24.93
6090;BME280;3073;42.660;23.316;2023-05-07T12:28:26;94572.63;;;33.97;23.91
6090;BME280;3073;42.660;23.316;2023-05-07T12:30:53;94571.97;;;36.13;21.71
6090;BME280;3073;42.660;23.316;2023-05-07T12:33:24;94562.94;;;37.91;21.42
6090;BME280;3073;42.660;23.316;2023-05-07T12:35:55;94561.75;;;38.16;21.26
6090;BME280;3073;42.660;23.316;2023-05-07T12:38:24;94556.31;;;36.23;22.20
6090;BME280;3073;42.660;23.316;2023-05-07T12:40:54;94557.00;;;35.00;23.37
6090;BME280;3073;42.660;23.316;2023-05-07T12:43:27;94556.97;;;36.30;22.35
6090;BME280;3073;42.660;23.316;2023-05-07T12:45:55;94553.22;;;35.90;22.97
6090;BME280;3073;42.660;23.316;2023-05-07T12:48:23;94551.41;;;34.11;23.59
6090;BME280;3073;42.660;23.316;2023-05-07T12:50:53;94548.75;;;34.91;22.78
6090;BME280;3073;42.660;23.316;2023-05-07T12:53:21;94548.91;;;36.37;22.13
6090;BME280;3073;42.660;23.316;2023-05-07T12:55:50;94544.69;;;36.97;21.90
6090;BME280;3073;42.660;23.316;2023-05-07T12:58:19;94538.31;;;37.41;21.17
6090;BME280;3073;42.660;23.316;2023-05-07T13:00:50;94537.53;;;38.06;20.79
6090;BME280;3073;42.660;23.316;2023-05-07T13:03:22;94526.66;;;39.53;19.98
6090;BME280;3073;42.660;23.316;2023-05-07T13:05:50;94533.91;;;38.36;20.47
6090;BME280;3073;42.660;23.316;2023-05-07T13:08:29;94529.03;;;39.19;20.62
6090;BME280;3073;42.660;23.316;2023-05-07T13:11:00;94533.84;;;39.73;20.07
6090;BME280;3073;42.660;23.316;2023-05-07T13:13:29;94527.94;;;39.00;20.11
6090;BME280;3073;42.660;23.316;2023-05-07T13:15:56;94525.06;;;37.80;21.12
6090;BME280;3073;42.660;23.316;2023-05-07T13:18:24;94523.47;;;38.06;21.04
6090;BME280;3073;42.660;23.316;2023-05-07T13:20:51;94527.47;;;34.98;22.66
6090;BME280;3073;42.660;23.316;2023-05-07T13:23:18;94523.06;;;36.68;21.82